sensor_id;sensor_type;location;lat;lon;timestamp;P1;durP1;ratioP1;P2;durP2;ratioP2
38683;SDS011;24910;53.248;-6.134;2022-12-16T00:00:33;16.45;;;6.28;;
38683;SDS011;24910;53.248;-6.134;2022-12-16T00:03:02;22.55;;;6.78;;
38683;SDS011;24910;53.248;-6.134;2022-12-16T00:05:32;18.13;;;6.95;;
38683;SDS011;24910;53.248;-6.134;2022-12-16T00:08:10;22.40;;;7.28;;
38683;SDS011;24910;53.248;-6.134;2022-12-16T00:10:39;19.67;;;6.88;;
38683;SDS011;24910;53.248;-6.134;2022-12-16T00:13:21;12.90;;;6.07;;
38683;SDS011;24910;53.248;-6.134;2022-12-16T00:15:51;12.50;;;5.85;;
38683;SDS011;24910;53.248;-6.134;2022-12-16T00:18:20;24.20;;;13.80;;
38683;SDS011;24910;53.248;-6.134;2022-12-16T00:20:50;19.35;;;7.50;;
38683;SDS011;24910;53.248;-6.134;2022-12-16T00:23:21;14.75;;;6.50;;
38683;SDS011;24910;53.248;-6.134;2022-12-16T00:25:51;13.07;;;4.70;;
38683;SDS011;24910;53.248;-6.134;2022-12-16T00:28:21;16.83;;;6.70;;
38683;SDS011;24910;53.248;-6.134;2022-12-16T00:30:52;18.35;;;6.90;;
38683;SDS011;24910;53.248;-6.134;2022-12-16T00:33:23;14.18;;;6.88;;
38683;SDS011;24910;53.248;-6.134;2022-12-16T00:35:53;15.13;;;6.22;;
38683;SDS011;24910;53.248;-6.134;2022-12-16T00:38:23;16.77;;;6.72;;
38683;SDS011;24910;53.248;-6.134;2022-12-16T00:40:53;15.65;;;6.53;;
38683;SDS011;24910;53.248;-6.134;2022-12-16T00:43:22;12.50;;;5.68;;
38683;SDS011;24910;53.248;-6.134;2022-12-16T00:45:53;17.05;;;6.60;;
38683;SDS011;24910;53.248;-6.134;2022-12-16T00:48:22;21.02;;;8.43;;
38683;SDS011;24910;53.248;-6.134;2022-12-16T00:50:52;21.98;;;7.05;;
38683;SDS011;24910;53.248;-6.134;2022-12-16T00:53:22;11.82;;;5.78;;
38683;SDS011;24910;53.248;-6.134;2022-12-16T00:55:59;17.97;;;5.47;;
38683;SDS011;24910;53.248;-6.134;2022-12-16T00:58:29;15.23;;;5.43;;
38683;SDS011;24910;53.248;-6.134;2022-12-16T01:00:59;11.90;;;4.65;;
38683;SDS011;24910;53.248;-6.134;2022-12-16T01:03:29;9.68;;;3.70;;
38683;SDS011;24910;53.248;-6.134;2022-12-16T01:05:59;12.05;;;3.28;;
38683;SDS011;24910;53.248;-6.134;2022-12-16T01:08:28;12.55;;;2.95;;
38683;SDS011;24910;53.248;-6.134;2022-12-16T01:10:57;10.10;;;2.80;;
38683;SDS011;24910;53.248;-6.134;2022-12-16T01:13:26;6.05;;;2.60;;
38683;SDS011;24910;53.248;-6.134;2022-12-16T01:15:58;13.90;;;2.42;;
38683;SDS011;24910;53.248;-6.134;2022-12-16T01:18:29;8.77;;;2.55;;
38683;SDS011;24910;53.248;-6.134;2022-12-16T01:21:00;13.00;;;2.88;;
38683;SDS011;24910;53.248;-6.134;2022-12-16T01:23:31;9.25;;;2.92;;
38683;SDS011;24910;53.248;-6.134;2022-12-16T01:26:01;10.38;;;2.33;;
38683;SDS011;24910;53.248;-6.134;2022-12-16T01:28:30;5.97;;;1.98;;
38683;SDS011;24910;53.248;-6.134;2022-12-16T01:31:01;6.75;;;2.20;;
38683;SDS011;24910;53.248;-6.134;2022-12-16T01:33:30;7.57;;;1.92;;
38683;SDS011;24910;53.248;-6.134;2022-12-16T01:36:01;5.30;;;2.00;;
38683;SDS011;24910;53.248;-6.134;2022-12-16T01:38:32;4.40;;;1.70;;
38683;SDS011;24910;53.248;-6.134;2022-12-16T01:41:02;6.28;;;1.63;;
38683;SDS011;24910;53.248;-6.134;2022-12-16T01:43:33;3.33;;;1.30;;
38683;SDS011;24910;53.248;-6.134;2022-12-16T01:46:06;14.02;;;2.33;;
38683;SDS011;24910;53.248;-6.134;2022-12-16T01:48:44;6.35;;;1.60;;
38683;SDS011;24910;53.248;-6.134;2022-12-16T01:51:20;7.90;;;1.55;;
38683;SDS011;24910;53.248;-6.134;2022-12-16T01:53:54;5.15;;;1.58;;
38683;SDS011;24910;53.248;-6.134;2022-12-16T01:56:29;7.60;;;1.67;;
38683;SDS011;24910;53.248;-6.134;2022-12-16T01:59:00;4.68;;;1.63;;
38683;SDS011;24910;53.248;-6.134;2022-12-16T02:01:31;7.65;;;1.85;;
38683;SDS011;24910;53.248;-6.134;2022-12-16T02:04:01;3.85;;;1.30;;
38683;SDS011;24910;53.248;-6.134;2022-12-16T02:06:31;5.10;;;1.30;;
38683;SDS011;24910;53.248;-6.134;2022-12-16T02:09:02;7.70;;;2.10;;
38683;SDS011;24910;53.248;-6.134;2022-12-16T02:11:38;6.13;;;1.80;;
38683;SDS011;24910;53.248;-6.134;2022-12-16T02:14:33;4.38;;;1.40;;
38683;SDS011;24910;53.248;-6.134;2022-12-16T02:17:32;8.25;;;1.45;;
38683;SDS011;24910;53.248;-6.134;2022-12-16T02:20:35;4.50;;;1.33;;
38683;SDS011;24910;53.248;-6.134;2022-12-16T02:23:34;8.43;;;1.42;;
38683;SDS011;24910;53.248;-6.134;2022-12-16T02:26:19;4.20;;;1.40;;
38683;SDS011;24910;53.248;-6.134;2022-12-16T02:29:21;6.25;;;1.55;;
38683;SDS011;24910;53.248;-6.134;2022-12-16T02:32:06;5.25;;;1.48;;
38683;SDS011;24910;53.248;-6.134;2022-12-16T02:34:43;6.03;;;1.30;;
38683;SDS011;24910;53.248;-6.134;2022-12-16T02:37:23;6.38;;;1.40;;
38683;SDS011;24910;53.248;-6.134;2022-12-16T02:40:03;4.28;;;1.35;;
38683;SDS011;24910;53.248;-6.134;2022-12-16T02:42:40;8.60;;;1.25;;
38683;SDS011;24910;53.248;-6.134;2022-12-16T02:45:15;7.30;;;1.52;;
38683;SDS011;24910;53.248;-6.134;2022-12-16T02:47:46;5.70;;;1.48;;
38683;SDS011;24910;53.248;-6.134;2022-12-16T02:50:17;5.18;;;1.50;;
38683;SDS011;24910;53.248;-6.134;2022-12-16T02:52:48;6.40;;;1.38;;
38683;SDS011;24910;53.248;-6.134;2022-12-16T02:55:19;5.60;;;1.20;;
38683;SDS011;24910;53.248;-6.134;2022-12-16T02:58:02;5.85;;;1.20;;
38683;SDS011;24910;53.248;-6.134;2022-12-16T03:00:39;6.95;;;1.88;;
38683;SDS011;24910;53.248;-6.134;2022-12-16T03:03:17;6.60;;;1.20;;
38683;SDS011;24910;53.248;-6.134;2022-12-16T03:05:53;6.35;;;1.00;;
38683;SDS011;24910;53.248;-6.134;2022-12-16T03:08:25;9.18;;;1.42;;
38683;SDS011;24910;53.248;-6.134;2022-12-16T03:10:59;6.28;;;1.50;;
38683;SDS011;24910;53.248;-6.134;2022-12-16T03:13:31;5.35;;;1.30;;
38683;SDS011;24910;53.248;-6.134;2022-12-16T03:16:04;4.15;;;1.40;;
38683;SDS011;24910;53.248;-6.134;2022-12-16T03:18:39;4.60;;;1.52;;
38683;SDS011;24910;53.248;-6.134;2022-12-16T03:21:11;6.82;;;1.30;;
38683;SDS011;24910;53.248;-6.134;2022-12-16T03:23:43;10.82;;;1.25;;
38683;SDS011;24910;53.248;-6.134;2022-12-16T03:26:18;6.43;;;1.10;;
38683;SDS011;24910;53.248;-6.134;2022-12-16T03:28:53;3.90;;;1.20;;
38683;SDS011;24910;53.248;-6.134;2022-12-16T03:31:30;3.80;;;1.13;;
38683;SDS011;24910;53.248;-6.134;2022-12-16T03:34:06;5.65;;;1.38;;
38683;SDS011;24910;53.248;-6.134;2022-12-16T03:36:42;6.15;;;1.20;;
38683;SDS011;24910;53.248;-6.134;2022-12-16T03:39:16;2.55;;;0.93;;
38683;SDS011;24910;53.248;-6.134;2022-12-16T03:41:47;3.53;;;0.90;;
38683;SDS011;24910;53.248;-6.134;2022-12-16T03:44:20;5.40;;;1.15;;
38683;SDS011;24910;53.248;-6.134;2022-12-16T03:46:51;4.28;;;1.20;;
38683;SDS011;24910;53.248;-6.134;2022-12-16T03:49:21;2.85;;;1.02;;
38683;SDS011;24910;53.248;-6.134;2022-12-16T03:51:51;6.25;;;1.17;;
38683;SDS011;24910;53.248;-6.134;2022-12-16T03:54:20;3.88;;;1.05;;
38683;SDS011;24910;53.248;-6.134;2022-12-16T03:56:50;3.90;;;1.20;;
38683;SDS011;24910;53.248;-6.134;2022-12-16T03:59:20;7.25;;;1.20;;
38683;SDS011;24910;53.248;-6.134;2022-12-16T04:01:49;5.20;;;1.00;;
38683;SDS011;24910;53.248;-6.134;2022-12-16T04:04:19;6.88;;;1.25;;
38683;SDS011;24910;53.248;-6.134;2022-12-16T04:06:50;3.30;;;1.50;;
38683;SDS011;24910;53.248;-6.134;2022-12-16T04:09:33;3.15;;;1.00;;
38683;SDS011;24910;53.248;-6.134;2022-12-16T04:12:02;6.47;;;1.10;;
38683;SDS011;24910;53.248;-6.134;2022-12-16T04:14:48;6.57;;;1.33;;
38683;SDS011;24910;53.248;-6.134;2022-12-16T04:17:35;3.88;;;1.08;;
38683;SDS011;24910;53.248;-6.134;2022-12-16T04:20:21;5.40;;;1.23;;
38683;SDS011;24910;53.248;-6.134;2022-12-16T04:23:14;6.32;;;1.45;;
38683;SDS011;24910;53.248;-6.134;2022-12-16T04:26:01;3.70;;;1.33;;
38683;SDS011;24910;53.248;-6.134;2022-12-16T04:28:31;5.50;;;1.20;;
38683;SDS011;24910;53.248;-6.134;2022-12-16T04:31:00;5.32;;;1.30;;
38683;SDS011;24910;53.248;-6.134;2022-12-16T04:33:29;4.53;;;1.20;;
38683;SDS011;24910;53.248;-6.134;2022-12-16T04:36:16;7.82;;;1.52;;
38683;SDS011;24910;53.248;-6.134;2022-12-16T04:39:04;6.47;;;1.30;;
38683;SDS011;24910;53.248;-6.134;2022-12-16T04:42:02;4.70;;;1.23;;
38683;SDS011;24910;53.248;-6.134;2022-12-16T04:44:49;3.33;;;1.13;;
38683;SDS011;24910;53.248;-6.134;2022-12-16T04:47:35;4.40;;;1.40;;
38683;SDS011;24910;53.248;-6.134;2022-12-16T04:50:23;4.55;;;1.35;;
38683;SDS011;24910;53.248;-6.134;2022-12-16T04:53:10;3.92;;;1.10;;
38683;SDS011;24910;53.248;-6.134;2022-12-16T04:55:58;5.57;;;1.00;;
38683;SDS011;24910;53.248;-6.134;2022-12-16T04:58:44;6.40;;;1.05;;
38683;SDS011;24910;53.248;-6.134;2022-12-16T05:01:36;5.13;;;1.00;;
38683;SDS011;24910;53.248;-6.134;2022-12-16T05:04:23;6.15;;;1.08;;
38683;SDS011;24910;53.248;-6.134;2022-12-16T05:07:09;4.95;;;1.20;;
38683;SDS011;24910;53.248;-6.134;2022-12-16T05:09:52;8.10;;;1.10;;
38683;SDS011;24910;53.248;-6.134;2022-12-16T05:12:40;8.52;;;1.30;;
38683;SDS011;24910;53.248;-6.134;2022-12-16T05:15:26;9.23;;;1.48;;
38683;SDS011;24910;53.248;-6.134;2022-12-16T05:18:13;6.95;;;1.33;;
38683;SDS011;24910;53.248;-6.134;2022-12-16T05:21:01;5.40;;;0.90;;
38683;SDS011;24910;53.248;-6.134;2022-12-16T05:23:47;5.55;;;0.93;;
38683;SDS011;24910;53.248;-6.134;2022-12-16T05:26:34;4.10;;;0.95;;
38683;SDS011;24910;53.248;-6.134;2022-12-16T05:29:22;4.75;;;1.10;;
38683;SDS011;24910;53.248;-6.134;2022-12-16T05:32:17;2.90;;;0.93;;
38683;SDS011;24910;53.248;-6.134;2022-12-16T05:35:04;2.55;;;0.88;;
38683;SDS011;24910;53.248;-6.134;2022-12-16T05:37:50;5.93;;;1.20;;
38683;SDS011;24910;53.248;-6.134;2022-12-16T05:40:36;5.22;;;1.10;;
38683;SDS011;24910;53.248;-6.134;2022-12-16T05:43:23;5.88;;;1.30;;
38683;SDS011;24910;53.248;-6.134;2022-12-16T05:46:22;4.20;;;1.10;;
38683;SDS011;24910;53.248;-6.134;2022-12-16T05:49:09;5.78;;;1.13;;
38683;SDS011;24910;53.248;-6.134;2022-12-16T05:51:55;6.03;;;1.23;;
38683;SDS011;24910;53.248;-6.134;2022-12-16T05:54:41;5.93;;;1.00;;
38683;SDS011;24910;53.248;-6.134;2022-12-16T05:57:28;4.82;;;1.00;;
38683;SDS011;24910;53.248;-6.134;2022-12-16T06:00:14;4.15;;;0.90;;
38683;SDS011;24910;53.248;-6.134;2022-12-16T06:03:02;5.07;;;1.05;;
38683;SDS011;24910;53.248;-6.134;2022-12-16T06:05:49;6.55;;;1.10;;
38683;SDS011;24910;53.248;-6.134;2022-12-16T06:08:35;7.00;;;1.08;;
38683;SDS011;24910;53.248;-6.134;2022-12-16T06:11:21;4.38;;;0.73;;
38683;SDS011;24910;53.248;-6.134;2022-12-16T06:14:07;4.47;;;0.80;;
38683;SDS011;24910;53.248;-6.134;2022-12-16T06:16:54;5.97;;;0.80;;
38683;SDS011;24910;53.248;-6.134;2022-12-16T06:19:41;4.13;;;0.75;;
38683;SDS011;24910;53.248;-6.134;2022-12-16T06:22:27;4.15;;;0.80;;
38683;SDS011;24910;53.248;-6.134;2022-12-16T06:25:14;5.85;;;0.85;;
38683;SDS011;24910;53.248;-6.134;2022-12-16T06:28:00;4.88;;;0.95;;
38683;SDS011;24910;53.248;-6.134;2022-12-16T06:30:47;4.00;;;1.10;;
38683;SDS011;24910;53.248;-6.134;2022-12-16T06:33:33;4.10;;;1.65;;
38683;SDS011;24910;53.248;-6.134;2022-12-16T06:36:22;8.70;;;1.45;;
38683;SDS011;24910;53.248;-6.134;2022-12-16T06:39:09;3.47;;;1.20;;
38683;SDS011;24910;53.248;-6.134;2022-12-16T06:41:55;6.47;;;1.20;;
38683;SDS011;24910;53.248;-6.134;2022-12-16T06:44:42;4.80;;;1.00;;
38683;SDS011;24910;53.248;-6.134;2022-12-16T06:47:28;5.68;;;1.50;;
38683;SDS011;24910;53.248;-6.134;2022-12-16T06:50:14;3.42;;;1.30;;
38683;SDS011;24910;53.248;-6.134;2022-12-16T06:53:02;7.07;;;1.20;;
38683;SDS011;24910;53.248;-6.134;2022-12-16T06:55:49;7.07;;;1.42;;
38683;SDS011;24910;53.248;-6.134;2022-12-16T06:58:36;5.47;;;1.20;;
38683;SDS011;24910;53.248;-6.134;2022-12-16T07:01:22;3.78;;;1.08;;
38683;SDS011;24910;53.248;-6.134;2022-12-16T07:04:09;5.63;;;1.30;;
38683;SDS011;24910;53.248;-6.134;2022-12-16T07:06:55;7.70;;;1.45;;
38683;SDS011;24910;53.248;-6.134;2022-12-16T07:09:43;3.15;;;1.65;;
38683;SDS011;24910;53.248;-6.134;2022-12-16T07:12:29;3.13;;;1.10;;
38683;SDS011;24910;53.248;-6.134;2022-12-16T07:15:16;8.43;;;1.20;;
38683;SDS011;24910;53.248;-6.134;2022-12-16T07:18:02;6.10;;;1.20;;
38683;SDS011;24910;53.248;-6.134;2022-12-16T07:20:49;6.75;;;1.85;;
38683;SDS011;24910;53.248;-6.134;2022-12-16T07:23:36;5.15;;;2.00;;
38683;SDS011;24910;53.248;-6.134;2022-12-16T07:26:23;4.47;;;2.10;;
38683;SDS011;24910;53.248;-6.134;2022-12-16T07:29:10;5.22;;;2.38;;
38683;SDS011;24910;53.248;-6.134;2022-12-16T07:31:56;5.55;;;2.30;;
38683;SDS011;24910;53.248;-6.134;2022-12-16T07:34:57;7.32;;;2.63;;
38683;SDS011;24910;53.248;-6.134;2022-12-16T07:37:43;7.65;;;2.80;;
38683;SDS011;24910;53.248;-6.134;2022-12-16T07:40:30;9.30;;;2.25;;
38683;SDS011;24910;53.248;-6.134;2022-12-16T07:43:17;6.78;;;1.90;;
38683;SDS011;24910;53.248;-6.134;2022-12-16T07:46:04;8.07;;;2.78;;
38683;SDS011;24910;53.248;-6.134;2022-12-16T07:48:50;6.20;;;2.38;;
38683;SDS011;24910;53.248;-6.134;2022-12-16T07:51:37;6.82;;;2.25;;
38683;SDS011;24910;53.248;-6.134;2022-12-16T07:54:23;7.13;;;2.30;;
38683;SDS011;24910;53.248;-6.134;2022-12-16T07:57:09;9.40;;;2.42;;
38683;SDS011;24910;53.248;-6.134;2022-12-16T07:59:57;10.32;;;3.00;;
38683;SDS011;24910;53.248;-6.134;2022-12-16T08:02:43;6.68;;;2.92;;
38683;SDS011;24910;53.248;-6.134;2022-12-16T08:05:30;13.50;;;3.40;;
38683;SDS011;24910;53.248;-6.134;2022-12-16T08:08:16;11.88;;;3.72;;
38683;SDS011;24910;53.248;-6.134;2022-12-16T08:11:03;13.52;;;3.72;;
38683;SDS011;24910;53.248;-6.134;2022-12-16T08:13:49;11.30;;;4.03;;
38683;SDS011;24910;53.248;-6.134;2022-12-16T08:16:37;18.70;;;5.70;;
38683;SDS011;24910;53.248;-6.134;2022-12-16T08:19:24;17.58;;;6.03;;
38683;SDS011;24910;53.248;-6.134;2022-12-16T08:22:10;22.05;;;7.93;;
38683;SDS011;24910;53.248;-6.134;2022-12-16T08:24:57;21.75;;;7.03;;
38683;SDS011;24910;53.248;-6.134;2022-12-16T08:27:45;20.42;;;7.25;;
38683;SDS011;24910;53.248;-6.134;2022-12-16T08:30:31;14.82;;;5.43;;
38683;SDS011;24910;53.248;-6.134;2022-12-16T08:33:19;13.80;;;5.32;;
38683;SDS011;24910;53.248;-6.134;2022-12-16T08:36:07;16.70;;;4.38;;
38683;SDS011;24910;53.248;-6.134;2022-12-16T08:38:53;11.45;;;4.95;;
38683;SDS011;24910;53.248;-6.134;2022-12-16T08:41:40;10.75;;;4.20;;
38683;SDS011;24910;53.248;-6.134;2022-12-16T08:44:26;6.35;;;3.42;;
38683;SDS011;24910;53.248;-6.134;2022-12-16T08:47:13;8.85;;;3.78;;
38683;SDS011;24910;53.248;-6.134;2022-12-16T08:50:00;10.05;;;4.40;;
38683;SDS011;24910;53.248;-6.134;2022-12-16T08:52:47;9.38;;;4.10;;
38683;SDS011;24910;53.248;-6.134;2022-12-16T08:55:33;9.40;;;4.50;;
38683;SDS011;24910;53.248;-6.134;2022-12-16T08:58:22;10.82;;;4.57;;
38683;SDS011;24910;53.248;-6.134;2022-12-16T09:01:08;10.20;;;5.70;;
38683;SDS011;24910;53.248;-6.134;2022-12-16T09:03:55;15.63;;;6.13;;
38683;SDS011;24910;53.248;-6.134;2022-12-16T09:06:46;13.38;;;7.43;;
38683;SDS011;24910;53.248;-6.134;2022-12-16T09:09:33;12.02;;;6.30;;
38683;SDS011;24910;53.248;-6.134;2022-12-16T09:12:20;13.90;;;7.13;;
38683;SDS011;24910;53.248;-6.134;2022-12-16T09:15:07;16.67;;;9.13;;
38683;SDS011;24910;53.248;-6.134;2022-12-16T09:17:54;12.13;;;6.95;;
38683;SDS011;24910;53.248;-6.134;2022-12-16T09:20:41;11.00;;;5.30;;
38683;SDS011;24910;53.248;-6.134;2022-12-16T09:23:29;13.30;;;5.78;;
38683;SDS011;24910;53.248;-6.134;2022-12-16T09:26:15;15.45;;;5.30;;
38683;SDS011;24910;53.248;-6.134;2022-12-16T09:29:02;10.77;;;4.63;;
38683;SDS011;24910;53.248;-6.134;2022-12-16T09:31:48;10.05;;;4.65;;
38683;SDS011;24910;53.248;-6.134;2022-12-16T09:34:35;8.35;;;4.60;;
38683;SDS011;24910;53.248;-6.134;2022-12-16T09:37:21;10.43;;;4.57;;
38683;SDS011;24910;53.248;-6.134;2022-12-16T09:40:10;9.35;;;4.30;;
38683;SDS011;24910;53.248;-6.134;2022-12-16T09:43:01;8.45;;;4.55;;
38683;SDS011;24910;53.248;-6.134;2022-12-16T09:45:57;5.57;;;3.60;;
38683;SDS011;24910;53.248;-6.134;2022-12-16T09:48:50;9.88;;;3.35;;
38683;SDS011;24910;53.248;-6.134;2022-12-16T09:51:45;13.32;;;3.10;;
38683;SDS011;24910;53.248;-6.134;2022-12-16T09:54:33;8.75;;;2.90;;
38683;SDS011;24910;53.248;-6.134;2022-12-16T09:57:23;10.80;;;2.70;;
38683;SDS011;24910;53.248;-6.134;2022-12-16T10:00:18;11.52;;;3.22;;
38683;SDS011;24910;53.248;-6.134;2022-12-16T10:03:11;8.32;;;2.80;;
38683;SDS011;24910;53.248;-6.134;2022-12-16T10:06:03;9.70;;;2.63;;
38683;SDS011;24910;53.248;-6.134;2022-12-16T10:08:56;14.18;;;3.03;;
38683;SDS011;24910;53.248;-6.134;2022-12-16T10:11:49;14.43;;;3.55;;
38683;SDS011;24910;53.248;-6.134;2022-12-16T10:14:46;13.75;;;4.75;;
38683;SDS011;24910;53.248;-6.134;2022-12-16T10:17:36;16.27;;;5.65;;
38683;SDS011;24910;53.248;-6.134;2022-12-16T10:20:29;16.65;;;5.68;;
38683;SDS011;24910;53.248;-6.134;2022-12-16T10:23:25;53.13;;;12.38;;
38683;SDS011;24910;53.248;-6.134;2022-12-16T10:26:19;34.67;;;11.82;;
38683;SDS011;24910;53.248;-6.134;2022-12-16T10:29:16;51.05;;;14.18;;
38683;SDS011;24910;53.248;-6.134;2022-12-16T10:32:09;47.65;;;13.60;;
38683;SDS011;24910;53.248;-6.134;2022-12-16T10:34:59;55.20;;;14.90;;
38683;SDS011;24910;53.248;-6.134;2022-12-16T10:37:48;29.23;;;9.43;;
38683;SDS011;24910;53.248;-6.134;2022-12-16T10:40:34;28.25;;;6.28;;
38683;SDS011;24910;53.248;-6.134;2022-12-16T10:43:24;21.48;;;5.82;;
38683;SDS011;24910;53.248;-6.134;2022-12-16T10:46:25;8.07;;;2.60;;
38683;SDS011;24910;53.248;-6.134;2022-12-16T10:49:19;7.80;;;2.00;;
38683;SDS011;24910;53.248;-6.134;2022-12-16T10:52:08;5.00;;;1.50;;
38683;SDS011;24910;53.248;-6.134;2022-12-16T10:54:59;7.63;;;1.85;;
38683;SDS011;24910;53.248;-6.134;2022-12-16T10:57:54;9.32;;;1.35;;
38683;SDS011;24910;53.248;-6.134;2022-12-16T11:00:48;8.85;;;1.30;;
38683;SDS011;24910;53.248;-6.134;2022-12-16T11:03:35;5.28;;;1.33;;
38683;SDS011;24910;53.248;-6.134;2022-12-16T11:06:25;3.25;;;1.02;;
38683;SDS011;24910;53.248;-6.134;2022-12-16T11:09:22;4.32;;;1.40;;
38683;SDS011;24910;53.248;-6.134;2022-12-16T11:12:24;3.95;;;1.42;;
38683;SDS011;24910;53.248;-6.134;2022-12-16T11:15:19;7.07;;;1.33;;
38683;SDS011;24910;53.248;-6.134;2022-12-16T11:18:10;6.97;;;1.27;;
38683;SDS011;24910;53.248;-6.134;2022-12-16T11:21:05;5.40;;;1.27;;
38683;SDS011;24910;53.248;-6.134;2022-12-16T11:24:05;4.28;;;0.90;;
38683;SDS011;24910;53.248;-6.134;2022-12-16T11:26:56;4.63;;;1.25;;
38683;SDS011;24910;53.248;-6.134;2022-12-16T11:29:48;2.58;;;0.90;;
38683;SDS011;24910;53.248;-6.134;2022-12-16T11:32:41;7.10;;;1.02;;
38683;SDS011;24910;53.248;-6.134;2022-12-16T11:35:31;5.35;;;0.90;;
38683;SDS011;24910;53.248;-6.134;2022-12-16T11:38:20;7.00;;;1.08;;
38683;SDS011;24910;53.248;-6.134;2022-12-16T11:41:14;4.35;;;0.90;;
38683;SDS011;24910;53.248;-6.134;2022-12-16T11:44:14;4.93;;;1.35;;
38683;SDS011;24910;53.248;-6.134;2022-12-16T11:47:04;6.40;;;1.40;;
38683;SDS011;24910;53.248;-6.134;2022-12-16T11:50:00;5.20;;;1.05;;
38683;SDS011;24910;53.248;-6.134;2022-12-16T11:52:50;2.85;;;0.80;;
38683;SDS011;24910;53.248;-6.134;2022-12-16T11:55:41;6.53;;;1.13;;
38683;SDS011;24910;53.248;-6.134;2022-12-16T11:58:43;6.00;;;1.40;;
38683;SDS011;24910;53.248;-6.134;2022-12-16T12:01:34;5.65;;;1.10;;
38683;SDS011;24910;53.248;-6.134;2022-12-16T12:04:26;3.28;;;1.05;;
38683;SDS011;24910;53.248;-6.134;2022-12-16T12:07:18;6.30;;;0.65;;
38683;SDS011;24910;53.248;-6.134;2022-12-16T12:10:24;3.55;;;0.70;;
38683;SDS011;24910;53.248;-6.134;2022-12-16T12:13:34;4.07;;;0.70;;
38683;SDS011;24910;53.248;-6.134;2022-12-16T12:16:39;4.45;;;0.80;;
38683;SDS011;24910;53.248;-6.134;2022-12-16T12:19:37;2.80;;;1.27;;
38683;SDS011;24910;53.248;-6.134;2022-12-16T12:22:35;7.75;;;0.90;;
38683;SDS011;24910;53.248;-6.134;2022-12-16T12:25:24;5.72;;;0.88;;
38683;SDS011;24910;53.248;-6.134;2022-12-16T12:28:21;4.38;;;1.10;;
38683;SDS011;24910;53.248;-6.134;2022-12-16T12:31:19;4.68;;;0.77;;
38683;SDS011;24910;53.248;-6.134;2022-12-16T12:34:19;2.85;;;0.80;;
38683;SDS011;24910;53.248;-6.134;2022-12-16T12:37:13;2.85;;;0.88;;
38683;SDS011;24910;53.248;-6.134;2022-12-16T12:40:09;6.65;;;1.00;;
38683;SDS011;24910;53.248;-6.134;2022-12-16T12:43:06;4.30;;;0.68;;
38683;SDS011;24910;53.248;-6.134;2022-12-16T12:46:10;7.53;;;1.20;;
38683;SDS011;24910;53.248;-6.134;2022-12-16T12:49:08;3.33;;;0.90;;
38683;SDS011;24910;53.248;-6.134;2022-12-16T12:52:02;4.22;;;1.10;;
38683;SDS011;24910;53.248;-6.134;2022-12-16T12:54:57;5.68;;;1.00;;
38683;SDS011;24910;53.248;-6.134;2022-12-16T12:57:48;7.57;;;1.10;;
38683;SDS011;24910;53.248;-6.134;2022-12-16T13:00:48;4.32;;;0.70;;
38683;SDS011;24910;53.248;-6.134;2022-12-16T13:03:39;9.45;;;1.33;;
38683;SDS011;24910;53.248;-6.134;2022-12-16T13:06:30;7.80;;;1.88;;
38683;SDS011;24910;53.248;-6.134;2022-12-16T13:09:22;3.33;;;1.50;;
38683;SDS011;24910;53.248;-6.134;2022-12-16T13:12:22;3.47;;;1.63;;
38683;SDS011;24910;53.248;-6.134;2022-12-16T13:15:32;7.00;;;1.15;;
38683;SDS011;24910;53.248;-6.134;2022-12-16T13:18:23;2.85;;;0.85;;
38683;SDS011;24910;53.248;-6.134;2022-12-16T13:24:31;3.95;;;0.70;;
38683;SDS011;24910;53.248;-6.134;2022-12-16T13:27:18;5.10;;;0.93;;
38683;SDS011;24910;53.248;-6.134;2022-12-16T13:30:16;28.65;;;9.65;;
38683;SDS011;24910;53.248;-6.134;2022-12-16T13:33:20;15.23;;;2.42;;
38683;SDS011;24910;53.248;-6.134;2022-12-16T13:36:11;1.83;;;0.93;;
38683;SDS011;24910;53.248;-6.134;2022-12-16T13:39:05;8.63;;;1.80;;
38683;SDS011;24910;53.248;-6.134;2022-12-16T13:42:05;1.88;;;0.82;;
38683;SDS011;24910;53.248;-6.134;2022-12-16T13:45:26;2.30;;;0.80;;
38683;SDS011;24910;53.248;-6.134;2022-12-16T13:48:26;2.40;;;0.77;;
38683;SDS011;24910;53.248;-6.134;2022-12-16T13:54:53;6.28;;;0.90;;
38683;SDS011;24910;53.248;-6.134;2022-12-16T13:57:52;2.40;;;0.70;;
38683;SDS011;24910;53.248;-6.134;2022-12-16T14:00:53;3.88;;;0.80;;
38683;SDS011;24910;53.248;-6.134;2022-12-16T14:03:44;12.88;;;4.75;;
38683;SDS011;24910;53.248;-6.134;2022-12-16T14:06:33;5.60;;;1.73;;
38683;SDS011;24910;53.248;-6.134;2022-12-16T14:09:23;11.95;;;2.95;;
38683;SDS011;24910;53.248;-6.134;2022-12-16T14:12:18;9.10;;;1.58;;
38683;SDS011;24910;53.248;-6.134;2022-12-16T14:15:25;2.13;;;0.70;;
38683;SDS011;24910;53.248;-6.134;2022-12-16T14:18:18;10.82;;;2.70;;
38683;SDS011;24910;53.248;-6.134;2022-12-16T14:21:15;4.68;;;1.20;;
38683;SDS011;24910;53.248;-6.134;2022-12-16T14:24:06;4.20;;;1.45;;
38683;SDS011;24910;53.248;-6.134;2022-12-16T14:27:03;2.67;;;1.00;;
38683;SDS011;24910;53.248;-6.134;2022-12-16T14:29:51;5.47;;;1.40;;
38683;SDS011;24910;53.248;-6.134;2022-12-16T14:32:50;2.67;;;0.77;;
38683;SDS011;24910;53.248;-6.134;2022-12-16T14:35:36;1.77;;;0.70;;
38683;SDS011;24910;53.248;-6.134;2022-12-16T14:38:34;6.38;;;1.35;;
38683;SDS011;24910;53.248;-6.134;2022-12-16T14:41:21;2.05;;;0.80;;
38683;SDS011;24910;53.248;-6.134;2022-12-16T14:44:14;6.15;;;1.17;;
38683;SDS011;24910;53.248;-6.134;2022-12-16T14:47:04;6.53;;;1.20;;
38683;SDS011;24910;53.248;-6.134;2022-12-16T14:50:00;3.88;;;0.90;;
38683;SDS011;24910;53.248;-6.134;2022-12-16T14:52:46;8.70;;;4.40;;
38683;SDS011;24910;53.248;-6.134;2022-12-16T14:55:33;17.35;;;3.20;;
38683;SDS011;24910;53.248;-6.134;2022-12-16T14:58:20;7.03;;;2.42;;
38683;SDS011;24910;53.248;-6.134;2022-12-16T15:01:11;12.70;;;3.65;;
38683;SDS011;24910;53.248;-6.134;2022-12-16T15:04:01;8.40;;;1.92;;
38683;SDS011;24910;53.248;-6.134;2022-12-16T15:06:51;25.67;;;9.43;;
38683;SDS011;24910;53.248;-6.134;2022-12-16T15:09:39;78.00;;;29.55;;
38683;SDS011;24910;53.248;-6.134;2022-12-16T15:12:29;33.55;;;12.90;;
38683;SDS011;24910;53.248;-6.134;2022-12-16T15:15:21;9.73;;;2.28;;
38683;SDS011;24910;53.248;-6.134;2022-12-16T15:18:15;9.60;;;3.30;;
38683;SDS011;24910;53.248;-6.134;2022-12-16T15:21:05;5.32;;;2.30;;
38683;SDS011;24910;53.248;-6.134;2022-12-16T15:23:52;30.95;;;11.00;;
38683;SDS011;24910;53.248;-6.134;2022-12-16T15:26:39;98.38;;;36.58;;
38683;SDS011;24910;53.248;-6.134;2022-12-16T15:29:30;88.88;;;33.97;;
38683;SDS011;24910;53.248;-6.134;2022-12-16T15:32:24;136.98;;;51.50;;
38683;SDS011;24910;53.248;-6.134;2022-12-16T15:35:22;45.55;;;19.27;;
38683;SDS011;24910;53.248;-6.134;2022-12-16T15:38:14;76.55;;;28.52;;
38683;SDS011;24910;53.248;-6.134;2022-12-16T15:41:13;33.65;;;14.77;;
38683;SDS011;24910;53.248;-6.134;2022-12-16T15:44:12;22.83;;;9.80;;
38683;SDS011;24910;53.248;-6.134;2022-12-16T15:47:00;31.08;;;13.80;;
38683;SDS011;24910;53.248;-6.134;2022-12-16T15:49:47;15.55;;;7.05;;
38683;SDS011;24910;53.248;-6.134;2022-12-16T15:52:36;10.10;;;3.53;;
38683;SDS011;24910;53.248;-6.134;2022-12-16T15:55:27;8.07;;;2.03;;
38683;SDS011;24910;53.248;-6.134;2022-12-16T15:58:19;6.35;;;1.45;;
38683;SDS011;24910;53.248;-6.134;2022-12-16T16:01:07;6.05;;;4.43;;
38683;SDS011;24910;53.248;-6.134;2022-12-16T16:03:55;4.30;;;2.50;;
38683;SDS011;24910;53.248;-6.134;2022-12-16T16:06:44;20.15;;;12.27;;
38683;SDS011;24910;53.248;-6.134;2022-12-16T16:09:34;13.93;;;11.40;;
38683;SDS011;24910;53.248;-6.134;2022-12-16T16:12:23;11.73;;;7.82;;
38683;SDS011;24910;53.248;-6.134;2022-12-16T16:15:11;30.02;;;18.30;;
38683;SDS011;24910;53.248;-6.134;2022-12-16T16:17:59;28.95;;;19.83;;
38683;SDS011;24910;53.248;-6.134;2022-12-16T16:20:48;10.02;;;4.43;;
38683;SDS011;24910;53.248;-6.134;2022-12-16T16:23:36;15.93;;;11.02;;
38683;SDS011;24910;53.248;-6.134;2022-12-16T16:26:24;20.85;;;13.02;;